sensor_id;sensor_type;location;lat;lon;timestamp;P1;durP1;ratioP1;P2;durP2;ratioP2
10333;SDS011;5212;47.892;16.406;2024-02-15T00:02:09;3.80;;;2.60;;
10333;SDS011;5212;47.892;16.406;2024-02-15T00:04:36;3.47;;;2.60;;
10333;SDS011;5212;47.892;16.406;2024-02-15T00:07:02;3.10;;;2.53;;
10333;SDS011;5212;47.892;16.406;2024-02-15T00:09:28;4.17;;;2.43;;
10333;SDS011;5212;47.892;16.406;2024-02-15T00:11:54;3.83;;;2.30;;
10333;SDS011;5212;47.892;16.406;2024-02-15T00:14:21;3.17;;;2.40;;
10333;SDS011;5212;47.892;16.406;2024-02-15T00:16:47;4.33;;;2.63;;
10333;SDS011;5212;47.892;16.406;2024-02-15T00:19:13;4.07;;;2.50;;
10333;SDS011;5212;47.892;16.406;2024-02-15T00:21:43;3.77;;;2.10;;
10333;SDS011;5212;47.892;16.406;2024-02-15T00:24:09;4.07;;;2.63;;
10333;SDS011;5212;47.892;16.406;2024-02-15T00:26:35;5.57;;;3.30;;
10333;SDS011;5212;47.892;16.406;2024-02-15T00:29:01;3.20;;;2.50;;
10333;SDS011;5212;47.892;16.406;2024-02-15T00:31:27;3.43;;;2.40;;
10333;SDS011;5212;47.892;16.406;2024-02-15T00:33:53;3.57;;;2.60;;
10333;SDS011;5212;47.892;16.406;2024-02-15T00:36:20;2.53;;;2.10;;
10333;SDS011;5212;47.892;16.406;2024-02-15T00:38:47;3.87;;;1.97;;
10333;SDS011;5212;47.892;16.406;2024-02-15T00:41:13;3.67;;;1.90;;
10333;SDS011;5212;47.892;16.406;2024-02-15T00:43:39;5.17;;;2.57;;
10333;SDS011;5212;47.892;16.406;2024-02-15T00:46:04;2.50;;;2.17;;
10333;SDS011;5212;47.892;16.406;2024-02-15T00:48:31;3.80;;;2.50;;
10333;SDS011;5212;47.892;16.406;2024-02-15T00:50:57;2.60;;;1.93;;
10333;SDS011;5212;47.892;16.406;2024-02-15T00:53:23;3.63;;;2.17;;
10333;SDS011;5212;47.892;16.406;2024-02-15T00:55:49;3.57;;;2.60;;
10333;SDS011;5212;47.892;16.406;2024-02-15T00:58:16;2.30;;;1.93;;
10333;SDS011;5212;47.892;16.406;2024-02-15T01:00:42;3.23;;;2.40;;
10333;SDS011;5212;47.892;16.406;2024-02-15T01:03:08;3.53;;;2.40;;
10333;SDS011;5212;47.892;16.406;2024-02-15T01:05:34;4.50;;;2.80;;
10333;SDS011;5212;47.892;16.406;2024-02-15T01:08:00;4.77;;;2.67;;
10333;SDS011;5212;47.892;16.406;2024-02-15T01:10:26;3.53;;;2.60;;
10333;SDS011;5212;47.892;16.406;2024-02-15T01:12:53;4.37;;;2.20;;
10333;SDS011;5212;47.892;16.406;2024-02-15T01:15:19;3.10;;;2.40;;
10333;SDS011;5212;47.892;16.406;2024-02-15T01:17:45;3.73;;;2.40;;
10333;SDS011;5212;47.892;16.406;2024-02-15T01:20:11;3.63;;;2.47;;
10333;SDS011;5212;47.892;16.406;2024-02-15T01:22:37;3.40;;;2.20;;
10333;SDS011;5212;47.892;16.406;2024-02-15T01:25:04;4.07;;;2.00;;
10333;SDS011;5212;47.892;16.406;2024-02-15T01:27:30;3.80;;;2.30;;
10333;SDS011;5212;47.892;16.406;2024-02-15T01:29:57;3.47;;;2.40;;
10333;SDS011;5212;47.892;16.406;2024-02-15T01:32:23;2.90;;;2.10;;
10333;SDS011;5212;47.892;16.406;2024-02-15T01:34:49;4.23;;;2.17;;
10333;SDS011;5212;47.892;16.406;2024-02-15T01:37:19;3.57;;;2.20;;
10333;SDS011;5212;47.892;16.406;2024-02-15T01:39:45;5.17;;;2.70;;
10333;SDS011;5212;47.892;16.406;2024-02-15T01:42:11;3.03;;;2.53;;
10333;SDS011;5212;47.892;16.406;2024-02-15T01:44:39;3.77;;;2.60;;
10333;SDS011;5212;47.892;16.406;2024-02-15T01:47:06;4.00;;;2.43;;
10333;SDS011;5212;47.892;16.406;2024-02-15T01:49:33;3.60;;;2.33;;
10333;SDS011;5212;47.892;16.406;2024-02-15T01:52:00;3.47;;;2.40;;
10333;SDS011;5212;47.892;16.406;2024-02-15T01:54:26;4.07;;;2.30;;
10333;SDS011;5212;47.892;16.406;2024-02-15T01:56:53;3.43;;;2.40;;
10333;SDS011;5212;47.892;16.406;2024-02-15T01:59:19;4.50;;;2.73;;
10333;SDS011;5212;47.892;16.406;2024-02-15T02:01:48;4.13;;;2.90;;
10333;SDS011;5212;47.892;16.406;2024-02-15T02:04:15;2.87;;;2.33;;
10333;SDS011;5212;47.892;16.406;2024-02-15T02:06:41;3.93;;;2.47;;
10333;SDS011;5212;47.892;16.406;2024-02-15T02:09:08;4.93;;;2.20;;
10333;SDS011;5212;47.892;16.406;2024-02-15T02:11:37;3.50;;;2.37;;
10333;SDS011;5212;47.892;16.406;2024-02-15T02:14:04;3.30;;;2.30;;
10333;SDS011;5212;47.892;16.406;2024-02-15T02:16:30;5.47;;;2.30;;
10333;SDS011;5212;47.892;16.406;2024-02-15T02:18:57;4.90;;;2.50;;
10333;SDS011;5212;47.892;16.406;2024-02-15T02:21:24;3.60;;;2.30;;
10333;SDS011;5212;47.892;16.406;2024-02-15T02:23:52;3.70;;;2.23;;
10333;SDS011;5212;47.892;16.406;2024-02-15T02:26:20;3.77;;;2.40;;
10333;SDS011;5212;47.892;16.406;2024-02-15T02:28:47;2.70;;;1.83;;
10333;SDS011;5212;47.892;16.406;2024-02-15T02:31:13;3.47;;;2.30;;
10333;SDS011;5212;47.892;16.406;2024-02-15T02:33:39;3.67;;;2.30;;
10333;SDS011;5212;47.892;16.406;2024-02-15T02:36:06;3.17;;;2.17;;
10333;SDS011;5212;47.892;16.406;2024-02-15T02:38:34;4.33;;;2.40;;
10333;SDS011;5212;47.892;16.406;2024-02-15T02:41:03;3.27;;;2.17;;
10333;SDS011;5212;47.892;16.406;2024-02-15T02:43:29;4.10;;;2.17;;
10333;SDS011;5212;47.892;16.406;2024-02-15T02:45:55;3.47;;;2.07;;
10333;SDS011;5212;47.892;16.406;2024-02-15T02:48:21;4.77;;;2.20;;
10333;SDS011;5212;47.892;16.406;2024-02-15T02:50:47;2.80;;;1.83;;
10333;SDS011;5212;47.892;16.406;2024-02-15T02:53:13;3.10;;;2.00;;
10333;SDS011;5212;47.892;16.406;2024-02-15T02:55:40;5.77;;;2.33;;
10333;SDS011;5212;47.892;16.406;2024-02-15T02:58:06;3.07;;;2.00;;
10333;SDS011;5212;47.892;16.406;2024-02-15T03:00:33;2.83;;;1.83;;
10333;SDS011;5212;47.892;16.406;2024-02-15T03:02:59;3.23;;;2.03;;
10333;SDS011;5212;47.892;16.406;2024-02-15T03:05:25;3.23;;;1.97;;
10333;SDS011;5212;47.892;16.406;2024-02-15T03:07:51;4.27;;;2.17;;
10333;SDS011;5212;47.892;16.406;2024-02-15T03:10:17;3.10;;;2.10;;
10333;SDS011;5212;47.892;16.406;2024-02-15T03:12:43;4.30;;;2.10;;
10333;SDS011;5212;47.892;16.406;2024-02-15T03:15:12;4.47;;;2.10;;
10333;SDS011;5212;47.892;16.406;2024-02-15T03:17:39;2.70;;;1.90;;
10333;SDS011;5212;47.892;16.406;2024-02-15T03:20:06;3.80;;;1.97;;
10333;SDS011;5212;47.892;16.406;2024-02-15T03:22:38;2.63;;;1.83;;
10333;SDS011;5212;47.892;16.406;2024-02-15T03:25:04;4.60;;;2.17;;
10333;SDS011;5212;47.892;16.406;2024-02-15T03:27:32;3.00;;;2.30;;
10333;SDS011;5212;47.892;16.406;2024-02-15T03:29:59;4.10;;;2.83;;
10333;SDS011;5212;47.892;16.406;2024-02-15T03:32:25;4.87;;;2.43;;
10333;SDS011;5212;47.892;16.406;2024-02-15T03:34:52;3.67;;;2.23;;
10333;SDS011;5212;47.892;16.406;2024-02-15T03:37:19;3.03;;;2.00;;
10333;SDS011;5212;47.892;16.406;2024-02-15T03:39:45;3.23;;;1.97;;
10333;SDS011;5212;47.892;16.406;2024-02-15T03:42:12;2.63;;;1.97;;
10333;SDS011;5212;47.892;16.406;2024-02-15T03:44:38;4.70;;;2.30;;
10333;SDS011;5212;47.892;16.406;2024-02-15T03:47:06;2.87;;;1.83;;
10333;SDS011;5212;47.892;16.406;2024-02-15T03:49:32;3.70;;;2.17;;
10333;SDS011;5212;47.892;16.406;2024-02-15T03:51:59;3.43;;;2.10;;
10333;SDS011;5212;47.892;16.406;2024-02-15T03:54:25;2.87;;;2.10;;
10333;SDS011;5212;47.892;16.406;2024-02-15T03:56:51;2.87;;;1.93;;
10333;SDS011;5212;47.892;16.406;2024-02-15T03:59:18;3.77;;;2.07;;
10333;SDS011;5212;47.892;16.406;2024-02-15T04:01:46;2.27;;;1.50;;
10333;SDS011;5212;47.892;16.406;2024-02-15T04:04:12;2.40;;;1.53;;
10333;SDS011;5212;47.892;16.406;2024-02-15T04:06:39;2.90;;;1.80;;
10333;SDS011;5212;47.892;16.406;2024-02-15T04:09:06;3.87;;;1.93;;
10333;SDS011;5212;47.892;16.406;2024-02-15T04:11:32;2.93;;;2.00;;
10333;SDS011;5212;47.892;16.406;2024-02-15T04:13:58;2.50;;;1.80;;
10333;SDS011;5212;47.892;16.406;2024-02-15T04:16:24;2.50;;;1.63;;
10333;SDS011;5212;47.892;16.406;2024-02-15T04:18:51;2.73;;;1.70;;
10333;SDS011;5212;47.892;16.406;2024-02-15T04:21:17;2.63;;;1.80;;
10333;SDS011;5212;47.892;16.406;2024-02-15T04:23:44;2.43;;;1.40;;
10333;SDS011;5212;47.892;16.406;2024-02-15T04:26:11;3.10;;;1.50;;
10333;SDS011;5212;47.892;16.406;2024-02-15T04:28:38;2.70;;;1.80;;
10333;SDS011;5212;47.892;16.406;2024-02-15T04:31:04;3.00;;;1.90;;
10333;SDS011;5212;47.892;16.406;2024-02-15T04:33:33;3.03;;;1.70;;
10333;SDS011;5212;47.892;16.406;2024-02-15T04:35:59;3.80;;;1.83;;
10333;SDS011;5212;47.892;16.406;2024-02-15T04:38:27;2.73;;;1.63;;
10333;SDS011;5212;47.892;16.406;2024-02-15T04:40:53;1.90;;;1.53;;
10333;SDS011;5212;47.892;16.406;2024-02-15T04:43:20;1.80;;;1.50;;
10333;SDS011;5212;47.892;16.406;2024-02-15T04:45:47;2.77;;;1.90;;
10333;SDS011;5212;47.892;16.406;2024-02-15T04:48:13;2.00;;;1.50;;
10333;SDS011;5212;47.892;16.406;2024-02-15T04:50:39;2.17;;;1.80;;
10333;SDS011;5212;47.892;16.406;2024-02-15T04:53:07;2.80;;;1.77;;
10333;SDS011;5212;47.892;16.406;2024-02-15T04:55:33;3.00;;;1.90;;
10333;SDS011;5212;47.892;16.406;2024-02-15T04:58:00;2.33;;;1.53;;
10333;SDS011;5212;47.892;16.406;2024-02-15T05:00:27;3.47;;;1.70;;
10333;SDS011;5212;47.892;16.406;2024-02-15T05:02:53;3.37;;;1.87;;
10333;SDS011;5212;47.892;16.406;2024-02-15T05:05:20;2.57;;;1.67;;
10333;SDS011;5212;47.892;16.406;2024-02-15T05:07:47;2.80;;;1.70;;
10333;SDS011;5212;47.892;16.406;2024-02-15T05:10:14;3.27;;;2.10;;
10333;SDS011;5212;47.892;16.406;2024-02-15T05:12:41;2.13;;;1.80;;
10333;SDS011;5212;47.892;16.406;2024-02-15T05:15:08;3.30;;;2.13;;
10333;SDS011;5212;47.892;16.406;2024-02-15T05:17:36;3.50;;;2.30;;
10333;SDS011;5212;47.892;16.406;2024-02-15T05:20:06;2.70;;;2.03;;
10333;SDS011;5212;47.892;16.406;2024-02-15T05:22:36;3.27;;;2.20;;
10333;SDS011;5212;47.892;16.406;2024-02-15T05:25:03;3.03;;;1.93;;
10333;SDS011;5212;47.892;16.406;2024-02-15T05:27:30;3.00;;;1.83;;
10333;SDS011;5212;47.892;16.406;2024-02-15T05:29:56;1.73;;;1.50;;
10333;SDS011;5212;47.892;16.406;2024-02-15T05:32:22;3.33;;;1.80;;
10333;SDS011;5212;47.892;16.406;2024-02-15T05:34:49;2.17;;;1.60;;
10333;SDS011;5212;47.892;16.406;2024-02-15T05:37:15;1.50;;;1.40;;
10333;SDS011;5212;47.892;16.406;2024-02-15T05:39:41;2.77;;;1.70;;
10333;SDS011;5212;47.892;16.406;2024-02-15T05:42:07;1.57;;;1.30;;
10333;SDS011;5212;47.892;16.406;2024-02-15T05:44:35;2.20;;;1.60;;
10333;SDS011;5212;47.892;16.406;2024-02-15T05:47:01;20.17;;;11.27;;
10333;SDS011;5212;47.892;16.406;2024-02-15T05:49:27;9.67;;;5.60;;
10333;SDS011;5212;47.892;16.406;2024-02-15T05:51:54;4.60;;;3.30;;
10333;SDS011;5212;47.892;16.406;2024-02-15T05:54:20;3.23;;;2.70;;
10333;SDS011;5212;47.892;16.406;2024-02-15T05:56:47;3.50;;;2.20;;
10333;SDS011;5212;47.892;16.406;2024-02-15T05:59:18;3.63;;;2.10;;
10333;SDS011;5212;47.892;16.406;2024-02-15T06:01:45;3.90;;;2.70;;
10333;SDS011;5212;47.892;16.406;2024-02-15T06:04:13;6.37;;;2.60;;
10333;SDS011;5212;47.892;16.406;2024-02-15T06:06:39;2.13;;;1.50;;
10333;SDS011;5212;47.892;16.406;2024-02-15T06:09:06;1.87;;;1.50;;
10333;SDS011;5212;47.892;16.406;2024-02-15T06:11:32;2.23;;;1.40;;
10333;SDS011;5212;47.892;16.406;2024-02-15T06:13:58;2.10;;;1.50;;
10333;SDS011;5212;47.892;16.406;2024-02-15T06:16:24;2.13;;;1.47;;
10333;SDS011;5212;47.892;16.406;2024-02-15T06:18:51;1.20;;;0.90;;
10333;SDS011;5212;47.892;16.406;2024-02-15T06:21:17;1.67;;;1.30;;
10333;SDS011;5212;47.892;16.406;2024-02-15T06:23:44;2.40;;;1.70;;
10333;SDS011;5212;47.892;16.406;2024-02-15T06:26:11;1.93;;;1.73;;
10333;SDS011;5212;47.892;16.406;2024-02-15T06:28:37;2.13;;;1.47;;
10333;SDS011;5212;47.892;16.406;2024-02-15T06:31:21;2.03;;;1.20;;
10333;SDS011;5212;47.892;16.406;2024-02-15T06:34:05;1.97;;;1.43;;
10333;SDS011;5212;47.892;16.406;2024-02-15T06:36:50;1.30;;;1.17;;
10333;SDS011;5212;47.892;16.406;2024-02-15T06:39:35;1.80;;;1.20;;
10333;SDS011;5212;47.892;16.406;2024-02-15T06:42:07;1.97;;;1.30;;
10333;SDS011;5212;47.892;16.406;2024-02-15T06:44:33;1.70;;;1.10;;
10333;SDS011;5212;47.892;16.406;2024-02-15T06:46:59;1.40;;;1.10;;
10333;SDS011;5212;47.892;16.406;2024-02-15T06:49:25;1.90;;;1.43;;
10333;SDS011;5212;47.892;16.406;2024-02-15T06:51:51;1.93;;;1.00;;
10333;SDS011;5212;47.892;16.406;2024-02-15T06:54:17;1.83;;;1.07;;
10333;SDS011;5212;47.892;16.406;2024-02-15T06:56:43;1.60;;;1.40;;
10333;SDS011;5212;47.892;16.406;2024-02-15T06:59:11;1.30;;;1.17;;
10333;SDS011;5212;47.892;16.406;2024-02-15T07:01:39;1.60;;;1.33;;
10333;SDS011;5212;47.892;16.406;2024-02-15T07:04:07;1.90;;;1.27;;
10333;SDS011;5212;47.892;16.406;2024-02-15T07:06:33;2.20;;;1.40;;
10333;SDS011;5212;47.892;16.406;2024-02-15T07:09:00;1.80;;;1.30;;
10333;SDS011;5212;47.892;16.406;2024-02-15T07:11:26;1.63;;;1.23;;
10333;SDS011;5212;47.892;16.406;2024-02-15T07:13:53;1.60;;;1.30;;
10333;SDS011;5212;47.892;16.406;2024-02-15T07:16:20;1.27;;;1.10;;
10333;SDS011;5212;47.892;16.406;2024-02-15T07:18:46;1.80;;;1.30;;
10333;SDS011;5212;47.892;16.406;2024-02-15T07:21:12;1.40;;;1.20;;
10333;SDS011;5212;47.892;16.406;2024-02-15T07:23:39;3.30;;;1.80;;
10333;SDS011;5212;47.892;16.406;2024-02-15T07:26:06;2.20;;;1.60;;
10333;SDS011;5212;47.892;16.406;2024-02-15T07:28:33;2.63;;;1.70;;
10333;SDS011;5212;47.892;16.406;2024-02-15T07:30:59;2.40;;;1.80;;
10333;SDS011;5212;47.892;16.406;2024-02-15T07:33:28;3.13;;;1.80;;
10333;SDS011;5212;47.892;16.406;2024-02-15T07:35:54;3.37;;;1.80;;
10333;SDS011;5212;47.892;16.406;2024-02-15T07:38:21;4.43;;;2.20;;
10333;SDS011;5212;47.892;16.406;2024-02-15T07:40:48;2.13;;;1.70;;
10333;SDS011;5212;47.892;16.406;2024-02-15T07:43:14;4.03;;;2.23;;
10333;SDS011;5212;47.892;16.406;2024-02-15T07:45:40;3.53;;;2.00;;
10333;SDS011;5212;47.892;16.406;2024-02-15T07:48:08;3.87;;;2.40;;
10333;SDS011;5212;47.892;16.406;2024-02-15T07:50:35;4.60;;;2.50;;
10333;SDS011;5212;47.892;16.406;2024-02-15T07:53:02;2.90;;;2.30;;
10333;SDS011;5212;47.892;16.406;2024-02-15T07:55:30;3.67;;;2.90;;
10333;SDS011;5212;47.892;16.406;2024-02-15T07:57:56;3.33;;;2.30;;
10333;SDS011;5212;47.892;16.406;2024-02-15T08:00:23;5.87;;;2.73;;
10333;SDS011;5212;47.892;16.406;2024-02-15T08:02:52;4.37;;;2.60;;
10333;SDS011;5212;47.892;16.406;2024-02-15T08:05:18;2.93;;;2.30;;
10333;SDS011;5212;47.892;16.406;2024-02-15T08:07:46;5.07;;;2.97;;
10333;SDS011;5212;47.892;16.406;2024-02-15T08:10:12;3.13;;;2.33;;
10333;SDS011;5212;47.892;16.406;2024-02-15T08:12:41;3.13;;;2.17;;
10333;SDS011;5212;47.892;16.406;2024-02-15T08:15:08;2.97;;;2.13;;
10333;SDS011;5212;47.892;16.406;2024-02-15T08:17:37;3.80;;;3.00;;
10333;SDS011;5212;47.892;16.406;2024-02-15T08:20:07;3.50;;;2.70;;
10333;SDS011;5212;47.892;16.406;2024-02-15T08:22:33;3.87;;;2.97;;
10333;SDS011;5212;47.892;16.406;2024-02-15T08:25:00;4.13;;;2.70;;
10333;SDS011;5212;47.892;16.406;2024-02-15T08:27:26;4.63;;;2.67;;
10333;SDS011;5212;47.892;16.406;2024-02-15T08:29:56;5.47;;;3.47;;
10333;SDS011;5212;47.892;16.406;2024-02-15T08:32:22;4.33;;;2.80;;
10333;SDS011;5212;47.892;16.406;2024-02-15T08:34:48;2.40;;;2.10;;
10333;SDS011;5212;47.892;16.406;2024-02-15T08:37:14;3.47;;;2.60;;
10333;SDS011;5212;47.892;16.406;2024-02-15T08:39:40;4.67;;;2.60;;
10333;SDS011;5212;47.892;16.406;2024-02-15T08:42:10;4.87;;;3.50;;
10333;SDS011;5212;47.892;16.406;2024-02-15T08:44:36;5.70;;;3.93;;
10333;SDS011;5212;47.892;16.406;2024-02-15T08:47:02;4.50;;;3.10;;
10333;SDS011;5212;47.892;16.406;2024-02-15T08:49:30;6.13;;;3.27;;
10333;SDS011;5212;47.892;16.406;2024-02-15T08:51:56;3.07;;;2.47;;
10333;SDS011;5212;47.892;16.406;2024-02-15T08:54:23;3.40;;;2.47;;
10333;SDS011;5212;47.892;16.406;2024-02-15T08:56:51;2.33;;;2.00;;
10333;SDS011;5212;47.892;16.406;2024-02-15T08:59:18;4.83;;;2.30;;
10333;SDS011;5212;47.892;16.406;2024-02-15T09:01:44;3.33;;;2.40;;
10333;SDS011;5212;47.892;16.406;2024-02-15T09:04:11;3.03;;;2.50;;
10333;SDS011;5212;47.892;16.406;2024-02-15T09:06:38;2.90;;;2.30;;
10333;SDS011;5212;47.892;16.406;2024-02-15T09:09:03;2.57;;;2.00;;
10333;SDS011;5212;47.892;16.406;2024-02-15T09:11:29;4.00;;;2.33;;
10333;SDS011;5212;47.892;16.406;2024-02-15T09:13:55;3.40;;;2.37;;
10333;SDS011;5212;47.892;16.406;2024-02-15T09:16:22;3.73;;;2.37;;
10333;SDS011;5212;47.892;16.406;2024-02-15T09:18:48;4.00;;;2.47;;
10333;SDS011;5212;47.892;16.406;2024-02-15T09:21:14;3.43;;;2.50;;
10333;SDS011;5212;47.892;16.406;2024-02-15T09:23:41;4.37;;;2.50;;
10333;SDS011;5212;47.892;16.406;2024-02-15T09:26:06;2.90;;;2.30;;
10333;SDS011;5212;47.892;16.406;2024-02-15T09:28:35;2.10;;;1.33;;
10333;SDS011;5212;47.892;16.406;2024-02-15T09:31:01;2.37;;;1.30;;
10333;SDS011;5212;47.892;16.406;2024-02-15T09:33:27;1.50;;;1.20;;
10333;SDS011;5212;47.892;16.406;2024-02-15T09:35:53;2.20;;;1.40;;
10333;SDS011;5212;47.892;16.406;2024-02-15T09:38:20;2.00;;;1.53;;
10333;SDS011;5212;47.892;16.406;2024-02-15T09:40:48;2.50;;;1.30;;
10333;SDS011;5212;47.892;16.406;2024-02-15T09:43:14;1.53;;;1.07;;
10333;SDS011;5212;47.892;16.406;2024-02-15T09:45:41;1.57;;;0.97;;
10333;SDS011;5212;47.892;16.406;2024-02-15T09:48:07;1.23;;;0.90;;
10333;SDS011;5212;47.892;16.406;2024-02-15T09:50:36;1.23;;;0.90;;
10333;SDS011;5212;47.892;16.406;2024-02-15T09:53:05;2.57;;;0.97;;
10333;SDS011;5212;47.892;16.406;2024-02-15T09:55:33;0.77;;;0.60;;
10333;SDS011;5212;47.892;16.406;2024-02-15T09:58:00;0.93;;;0.63;;
10333;SDS011;5212;47.892;16.406;2024-02-15T10:00:26;1.50;;;0.80;;
10333;SDS011;5212;47.892;16.406;2024-02-15T10:02:52;1.73;;;0.80;;
10333;SDS011;5212;47.892;16.406;2024-02-15T10:05:19;1.37;;;0.77;;
10333;SDS011;5212;47.892;16.406;2024-02-15T10:07:46;1.43;;;0.70;;
10333;SDS011;5212;47.892;16.406;2024-02-15T10:10:15;1.33;;;0.87;;
10333;SDS011;5212;47.892;16.406;2024-02-15T10:12:42;1.27;;;0.63;;
10333;SDS011;5212;47.892;16.406;2024-02-15T10:15:09;1.07;;;0.60;;
10333;SDS011;5212;47.892;16.406;2024-02-15T10:17:35;0.97;;;0.80;;
10333;SDS011;5212;47.892;16.406;2024-02-15T10:20:05;1.00;;;0.70;;
10333;SDS011;5212;47.892;16.406;2024-02-15T10:22:32;2.10;;;0.60;;
10333;SDS011;5212;47.892;16.406;2024-02-15T10:25:11;0.83;;;0.60;;
10333;SDS011;5212;47.892;16.406;2024-02-15T10:27:38;1.00;;;0.80;;
10333;SDS011;5212;47.892;16.406;2024-02-15T10:30:13;0.90;;;0.70;;
10333;SDS011;5212;47.892;16.406;2024-02-15T10:32:41;1.17;;;0.80;;
10333;SDS011;5212;47.892;16.406;2024-02-15T10:35:07;1.60;;;0.80;;
10333;SDS011;5212;47.892;16.406;2024-02-15T10:37:33;1.00;;;0.83;;
10333;SDS011;5212;47.892;16.406;2024-02-15T10:40:03;1.53;;;1.00;;
10333;SDS011;5212;47.892;16.406;2024-02-15T10:42:32;1.37;;;0.87;;
10333;SDS011;5212;47.892;16.406;2024-02-15T10:44:59;1.23;;;1.00;;
10333;SDS011;5212;47.892;16.406;2024-02-15T10:47:27;1.87;;;0.90;;
10333;SDS011;5212;47.892;16.406;2024-02-15T10:49:53;1.43;;;0.93;;
10333;SDS011;5212;47.892;16.406;2024-02-15T10:52:20;1.40;;;1.00;;
10333;SDS011;5212;47.892;16.406;2024-02-15T10:54:51;1.17;;;1.03;;
10333;SDS011;5212;47.892;16.406;2024-02-15T10:57:20;1.73;;;1.10;;
10333;SDS011;5212;47.892;16.406;2024-02-15T10:59:54;1.17;;;1.00;;
10333;SDS011;5212;47.892;16.406;2024-02-15T11:02:29;1.80;;;1.20;;
10333;SDS011;5212;47.892;16.406;2024-02-15T11:04:58;1.00;;;0.80;;
10333;SDS011;5212;47.892;16.406;2024-02-15T11:07:28;1.57;;;1.00;;
10333;SDS011;5212;47.892;16.406;2024-02-15T11:09:55;1.60;;;1.00;;
10333;SDS011;5212;47.892;16.406;2024-02-15T11:12:21;1.40;;;1.10;;
10333;SDS011;5212;47.892;16.406;2024-02-15T11:14:49;3.73;;;1.30;;
10333;SDS011;5212;47.892;16.406;2024-02-15T11:23:25;1.70;;;1.10;;
10333;SDS011;5212;47.892;16.406;2024-02-15T11:25:55;1.57;;;1.20;;
10333;SDS011;5212;47.892;16.406;2024-02-15T11:28:36;2.73;;;1.30;;
10333;SDS011;5212;47.892;16.406;2024-02-15T11:31:07;2.07;;;1.30;;
10333;SDS011;5212;47.892;16.406;2024-02-15T11:33:34;1.67;;;1.20;;
10333;SDS011;5212;47.892;16.406;2024-02-15T11:36:04;1.97;;;1.30;;
10333;SDS011;5212;47.892;16.406;2024-02-15T11:38:30;1.80;;;1.20;;
10333;SDS011;5212;47.892;16.406;2024-02-15T11:41:00;1.27;;;1.03;;
10333;SDS011;5212;47.892;16.406;2024-02-15T11:43:45;1.67;;;1.27;;
10333;SDS011;5212;47.892;16.406;2024-02-15T11:46:15;1.50;;;1.20;;
10333;SDS011;5212;47.892;16.406;2024-02-15T11:48:43;2.40;;;1.30;;
10333;SDS011;5212;47.892;16.406;2024-02-15T11:51:09;1.90;;;1.10;;
10333;SDS011;5212;47.892;16.406;2024-02-15T11:53:36;1.40;;;1.30;;
10333;SDS011;5212;47.892;16.406;2024-02-15T11:56:03;1.93;;;1.33;;
10333;SDS011;5212;47.892;16.406;2024-02-15T11:58:30;2.93;;;1.20;;
10333;SDS011;5212;47.892;16.406;2024-02-15T12:01:07;2.37;;;1.20;;
10333;SDS011;5212;47.892;16.406;2024-02-15T12:03:53;2.67;;;1.30;;
10333;SDS011;5212;47.892;16.406;2024-02-15T12:06:37;1.60;;;1.10;;
10333;SDS011;5212;47.892;16.406;2024-02-15T12:09:22;2.13;;;1.47;;
10333;SDS011;5212;47.892;16.406;2024-02-15T12:12:06;2.70;;;1.40;;
10333;SDS011;5212;47.892;16.406;2024-02-15T12:14:57;2.43;;;1.30;;
10333;SDS011;5212;47.892;16.406;2024-02-15T12:17:42;2.37;;;1.53;;
10333;SDS011;5212;47.892;16.406;2024-02-15T12:20:27;2.00;;;1.47;;
10333;SDS011;5212;47.892;16.406;2024-02-15T12:22:54;2.23;;;1.40;;
10333;SDS011;5212;47.892;16.406;2024-02-15T12:25:20;1.97;;;1.37;;
10333;SDS011;5212;47.892;16.406;2024-02-15T12:27:52;3.07;;;1.70;;
10333;SDS011;5212;47.892;16.406;2024-02-15T12:30:18;1.73;;;1.30;;
10333;SDS011;5212;47.892;16.406;2024-02-15T12:32:46;2.20;;;1.47;;
10333;SDS011;5212;47.892;16.406;2024-02-15T12:35:13;2.63;;;1.53;;
10333;SDS011;5212;47.892;16.406;2024-02-15T12:37:42;1.87;;;1.40;;
10333;SDS011;5212;47.892;16.406;2024-02-15T12:40:11;1.83;;;1.30;;
10333;SDS011;5212;47.892;16.406;2024-02-15T12:42:40;2.07;;;1.40;;
10333;SDS011;5212;47.892;16.406;2024-02-15T12:45:14;3.33;;;1.87;;
10333;SDS011;5212;47.892;16.406;2024-02-15T12:47:43;3.60;;;1.70;;
10333;SDS011;5212;47.892;16.406;2024-02-15T12:50:13;2.03;;;1.63;;
10333;SDS011;5212;47.892;16.406;2024-02-15T12:52:39;3.67;;;2.03;;
10333;SDS011;5212;47.892;16.406;2024-02-15T12:55:10;1.97;;;1.57;;
10333;SDS011;5212;47.892;16.406;2024-02-15T12:57:36;3.37;;;1.97;;
10333;SDS011;5212;47.892;16.406;2024-02-15T13:00:06;2.33;;;1.70;;
10333;SDS011;5212;47.892;16.406;2024-02-15T13:02:36;2.63;;;1.70;;
10333;SDS011;5212;47.892;16.406;2024-02-15T13:05:03;4.40;;;2.13;;
10333;SDS011;5212;47.892;16.406;2024-02-15T13:07:29;2.47;;;1.80;;
10333;SDS011;5212;47.892;16.406;2024-02-15T13:09:56;3.03;;;1.73;;
10333;SDS011;5212;47.892;16.406;2024-02-15T13:12:22;1.90;;;1.47;;
10333;SDS011;5212;47.892;16.406;2024-02-15T13:14:48;1.97;;;1.50;;
10333;SDS011;5212;47.892;16.406;2024-02-15T13:17:15;2.50;;;1.80;;
10333;SDS011;5212;47.892;16.406;2024-02-15T13:19:44;2.40;;;1.87;;
10333;SDS011;5212;47.892;16.406;2024-02-15T13:22:10;2.50;;;2.10;;
10333;SDS011;5212;47.892;16.406;2024-02-15T13:24:36;3.33;;;1.70;;
10333;SDS011;5212;47.892;16.406;2024-02-15T13:27:04;4.13;;;1.50;;
10333;SDS011;5212;47.892;16.406;2024-02-15T13:29:30;1.90;;;1.50;;
10333;SDS011;5212;47.892;16.406;2024-02-15T13:31:58;1.77;;;1.40;;
10333;SDS011;5212;47.892;16.406;2024-02-15T13:34:25;2.00;;;1.40;;
10333;SDS011;5212;47.892;16.406;2024-02-15T13:36:51;2.37;;;1.40;;
10333;SDS011;5212;47.892;16.406;2024-02-15T13:39:17;1.93;;;1.40;;
10333;SDS011;5212;47.892;16.406;2024-02-15T13:41:46;2.23;;;1.40;;
10333;SDS011;5212;47.892;16.406;2024-02-15T13:44:12;2.17;;;1.60;;
10333;SDS011;5212;47.892;16.406;2024-02-15T13:46:40;1.80;;;1.33;;
10333;SDS011;5212;47.892;16.406;2024-02-15T13:49:07;2.50;;;1.70;;
10333;SDS011;5212;47.892;16.406;2024-02-15T13:51:33;2.97;;;1.80;;
10333;SDS011;5212;47.892;16.406;2024-02-15T13:54:00;2.30;;;1.80;;
10333;SDS011;5212;47.892;16.406;2024-02-15T13:56:26;2.50;;;1.80;;
10333;SDS011;5212;47.892;16.406;2024-02-15T13:58:52;2.40;;;1.80;;
10333;SDS011;5212;47.892;16.406;2024-02-15T14:01:19;3.83;;;2.00;;
10333;SDS011;5212;47.892;16.406;2024-02-15T14:03:45;3.20;;;2.00;;
10333;SDS011;5212;47.892;16.406;2024-02-15T14:06:12;4.57;;;2.37;;
10333;SDS011;5212;47.892;16.406;2024-02-15T14:08:40;5.00;;;2.70;;
10333;SDS011;5212;47.892;16.406;2024-02-15T14:11:06;3.37;;;2.40;;
10333;SDS011;5212;47.892;16.406;2024-02-15T14:13:32;3.33;;;2.40;;
10333;SDS011;5212;47.892;16.406;2024-02-15T14:15:58;3.53;;;2.50;;
10333;SDS011;5212;47.892;16.406;2024-02-15T14:18:25;3.33;;;2.40;;
10333;SDS011;5212;47.892;16.406;2024-02-15T14:20:51;3.33;;;2.37;;
10333;SDS011;5212;47.892;16.406;2024-02-15T14:23:17;3.77;;;2.07;;
10333;SDS011;5212;47.892;16.406;2024-02-15T14:25:43;3.53;;;2.10;;
10333;SDS011;5212;47.892;16.406;2024-02-15T14:28:09;3.17;;;2.00;;
10333;SDS011;5212;47.892;16.406;2024-02-15T14:30:36;3.30;;;2.30;;
10333;SDS011;5212;47.892;16.406;2024-02-15T14:33:20;3.47;;;2.60;;
10333;SDS011;5212;47.892;16.406;2024-02-15T14:35:47;2.53;;;2.00;;
10333;SDS011;5212;47.892;16.406;2024-02-15T14:38:15;3.93;;;2.40;;
10333;SDS011;5212;47.892;16.406;2024-02-15T14:40:44;3.43;;;2.10;;
10333;SDS011;5212;47.892;16.406;2024-02-15T14:43:15;2.40;;;2.07;;
10333;SDS011;5212;47.892;16.406;2024-02-15T14:45:42;4.83;;;2.20;;
10333;SDS011;5212;47.892;16.406;2024-02-15T14:48:08;2.97;;;2.20;;
10333;SDS011;5212;47.892;16.406;2024-02-15T14:50:35;3.23;;;2.53;;
10333;SDS011;5212;47.892;16.406;2024-02-15T14:53:01;2.67;;;2.07;;
10333;SDS011;5212;47.892;16.406;2024-02-15T14:55:27;3.57;;;2.10;;
10333;SDS011;5212;47.892;16.406;2024-02-15T14:57:56;3.43;;;2.20;;